sensor_id;sensor_type;location;lat;lon;timestamp;P1;durP1;ratioP1;P2;durP2;ratioP2
1682;SDS011;13252;53.596;10.060;2023-02-28T00:00:14;7.03;;;2.70;;
1682;SDS011;13252;53.596;10.060;2023-02-28T00:02:43;7.30;;;2.90;;
1682;SDS011;13252;53.596;10.060;2023-02-28T00:05:12;8.53;;;2.53;;
1682;SDS011;13252;53.596;10.060;2023-02-28T00:07:40;7.97;;;3.20;;
1682;SDS011;13252;53.596;10.060;2023-02-28T00:10:11;9.83;;;3.57;;
1682;SDS011;13252;53.596;10.060;2023-02-28T00:12:40;6.17;;;2.53;;
1682;SDS011;13252;53.596;10.060;2023-02-28T00:15:08;6.93;;;2.77;;
1682;SDS011;13252;53.596;10.060;2023-02-28T00:17:37;7.67;;;3.17;;
1682;SDS011;13252;53.596;10.060;2023-02-28T00:20:06;8.43;;;3.50;;
1682;SDS011;13252;53.596;10.060;2023-02-28T00:22:36;11.73;;;2.90;;
1682;SDS011;13252;53.596;10.060;2023-02-28T00:25:05;7.07;;;2.63;;
1682;SDS011;13252;53.596;10.060;2023-02-28T00:27:35;6.97;;;3.50;;
1682;SDS011;13252;53.596;10.060;2023-02-28T00:30:07;4.53;;;2.63;;
1682;SDS011;13252;53.596;10.060;2023-02-28T00:32:36;6.63;;;2.73;;
1682;SDS011;13252;53.596;10.060;2023-02-28T00:35:05;5.57;;;2.93;;
1682;SDS011;13252;53.596;10.060;2023-02-28T00:37:34;8.90;;;3.17;;
1682;SDS011;13252;53.596;10.060;2023-02-28T00:40:05;12.07;;;3.80;;
1682;SDS011;13252;53.596;10.060;2023-02-28T00:42:34;7.73;;;3.97;;
1682;SDS011;13252;53.596;10.060;2023-02-28T00:45:03;11.07;;;4.03;;
1682;SDS011;13252;53.596;10.060;2023-02-28T00:47:32;6.17;;;2.73;;
1682;SDS011;13252;53.596;10.060;2023-02-28T00:50:00;7.80;;;3.13;;
1682;SDS011;13252;53.596;10.060;2023-02-28T00:52:28;6.43;;;3.13;;
1682;SDS011;13252;53.596;10.060;2023-02-28T00:54:56;7.87;;;3.87;;
1682;SDS011;13252;53.596;10.060;2023-02-28T00:57:23;5.50;;;3.03;;
1682;SDS011;13252;53.596;10.060;2023-02-28T00:59:52;5.20;;;3.13;;
1682;SDS011;13252;53.596;10.060;2023-02-28T01:02:21;7.37;;;2.97;;
1682;SDS011;13252;53.596;10.060;2023-02-28T01:04:51;5.87;;;3.07;;
1682;SDS011;13252;53.596;10.060;2023-02-28T01:07:20;9.20;;;3.40;;
1682;SDS011;13252;53.596;10.060;2023-02-28T01:09:47;10.93;;;3.37;;
1682;SDS011;13252;53.596;10.060;2023-02-28T01:12:16;6.37;;;3.50;;
1682;SDS011;13252;53.596;10.060;2023-02-28T01:14:45;14.13;;;3.47;;
1682;SDS011;13252;53.596;10.060;2023-02-28T01:17:15;6.77;;;3.30;;
1682;SDS011;13252;53.596;10.060;2023-02-28T01:19:42;7.87;;;3.43;;
1682;SDS011;13252;53.596;10.060;2023-02-28T01:22:10;7.90;;;3.57;;
1682;SDS011;13252;53.596;10.060;2023-02-28T01:24:38;7.97;;;3.23;;
1682;SDS011;13252;53.596;10.060;2023-02-28T01:27:06;7.27;;;3.00;;
1682;SDS011;13252;53.596;10.060;2023-02-28T01:29:36;7.47;;;3.70;;
1682;SDS011;13252;53.596;10.060;2023-02-28T01:32:03;6.50;;;3.27;;
1682;SDS011;13252;53.596;10.060;2023-02-28T01:34:35;9.13;;;4.90;;
1682;SDS011;13252;53.596;10.060;2023-02-28T01:37:03;5.70;;;3.10;;
1682;SDS011;13252;53.596;10.060;2023-02-28T01:39:31;7.20;;;3.17;;
1682;SDS011;13252;53.596;10.060;2023-02-28T01:41:59;7.43;;;3.80;;
1682;SDS011;13252;53.596;10.060;2023-02-28T01:47:24;8.13;;;3.50;;
1682;SDS011;13252;53.596;10.060;2023-02-28T01:49:57;7.87;;;3.07;;
1682;SDS011;13252;53.596;10.060;2023-02-28T01:52:25;6.33;;;3.13;;
1682;SDS011;13252;53.596;10.060;2023-02-28T01:54:55;9.30;;;3.03;;
1682;SDS011;13252;53.596;10.060;2023-02-28T01:57:25;10.50;;;3.47;;
1682;SDS011;13252;53.596;10.060;2023-02-28T01:59:57;10.63;;;3.50;;
1682;SDS011;13252;53.596;10.060;2023-02-28T02:02:38;6.13;;;3.10;;
1682;SDS011;13252;53.596;10.060;2023-02-28T02:05:10;10.10;;;3.07;;
1682;SDS011;13252;53.596;10.060;2023-02-28T02:07:39;5.43;;;3.23;;
1682;SDS011;13252;53.596;10.060;2023-02-28T02:10:11;4.47;;;2.80;;
1682;SDS011;13252;53.596;10.060;2023-02-28T02:15:32;9.40;;;3.40;;
1682;SDS011;13252;53.596;10.060;2023-02-28T02:18:04;12.73;;;3.77;;
1682;SDS011;13252;53.596;10.060;2023-02-28T02:20:59;7.77;;;3.77;;
1682;SDS011;13252;53.596;10.060;2023-02-28T02:24:03;5.93;;;2.90;;
1682;SDS011;13252;53.596;10.060;2023-02-28T02:26:49;6.27;;;3.30;;
1682;SDS011;13252;53.596;10.060;2023-02-28T02:29:23;11.17;;;4.70;;
1682;SDS011;13252;53.596;10.060;2023-02-28T02:32:09;7.00;;;3.40;;
1682;SDS011;13252;53.596;10.060;2023-02-28T02:34:53;12.50;;;4.63;;
1682;SDS011;13252;53.596;10.060;2023-02-28T02:37:27;7.80;;;3.80;;
1682;SDS011;13252;53.596;10.060;2023-02-28T02:40:00;9.50;;;4.27;;
1682;SDS011;13252;53.596;10.060;2023-02-28T02:42:35;10.03;;;4.30;;
1682;SDS011;13252;53.596;10.060;2023-02-28T02:45:07;8.27;;;4.37;;
1682;SDS011;13252;53.596;10.060;2023-02-28T02:47:38;7.40;;;4.17;;
1682;SDS011;13252;53.596;10.060;2023-02-28T02:50:11;12.03;;;4.30;;
1682;SDS011;13252;53.596;10.060;2023-02-28T02:52:41;9.00;;;4.63;;
1682;SDS011;13252;53.596;10.060;2023-02-28T02:55:11;7.30;;;4.57;;
1682;SDS011;13252;53.596;10.060;2023-02-28T02:57:42;9.00;;;4.47;;
1682;SDS011;13252;53.596;10.060;2023-02-28T03:00:14;8.10;;;4.57;;
1682;SDS011;13252;53.596;10.060;2023-02-28T03:02:45;11.80;;;4.40;;
1682;SDS011;13252;53.596;10.060;2023-02-28T03:05:19;10.40;;;4.33;;
1682;SDS011;13252;53.596;10.060;2023-02-28T03:07:47;8.30;;;4.00;;
1682;SDS011;13252;53.596;10.060;2023-02-28T03:10:29;8.33;;;4.10;;
1682;SDS011;13252;53.596;10.060;2023-02-28T03:19:11;6.37;;;4.30;;
1682;SDS011;13252;53.596;10.060;2023-02-28T03:21:49;8.63;;;4.67;;
1682;SDS011;13252;53.596;10.060;2023-02-28T03:24:27;6.63;;;3.23;;
1682;SDS011;13252;53.596;10.060;2023-02-28T03:26:58;6.23;;;3.60;;
1682;SDS011;13252;53.596;10.060;2023-02-28T03:29:33;7.70;;;3.90;;
1682;SDS011;13252;53.596;10.060;2023-02-28T03:32:04;7.20;;;4.27;;
1682;SDS011;13252;53.596;10.060;2023-02-28T03:34:38;7.90;;;4.60;;
1682;SDS011;13252;53.596;10.060;2023-02-28T03:37:10;10.73;;;5.10;;
1682;SDS011;13252;53.596;10.060;2023-02-28T03:39:39;5.87;;;4.10;;
1682;SDS011;13252;53.596;10.060;2023-02-28T03:42:09;7.93;;;4.30;;
1682;SDS011;13252;53.596;10.060;2023-02-28T03:44:39;8.10;;;4.13;;
1682;SDS011;13252;53.596;10.060;2023-02-28T03:47:11;8.23;;;5.03;;
1682;SDS011;13252;53.596;10.060;2023-02-28T03:49:42;10.17;;;5.03;;
1682;SDS011;13252;53.596;10.060;2023-02-28T03:52:15;8.57;;;4.10;;
1682;SDS011;13252;53.596;10.060;2023-02-28T03:54:45;7.40;;;4.60;;
1682;SDS011;13252;53.596;10.060;2023-02-28T03:57:18;9.07;;;4.73;;
1682;SDS011;13252;53.596;10.060;2023-02-28T03:59:51;8.90;;;4.13;;
1682;SDS011;13252;53.596;10.060;2023-02-28T04:02:21;8.53;;;4.10;;
1682;SDS011;13252;53.596;10.060;2023-02-28T04:04:49;13.80;;;5.47;;
1682;SDS011;13252;53.596;10.060;2023-02-28T04:07:19;13.57;;;5.00;;
1682;SDS011;13252;53.596;10.060;2023-02-28T04:09:47;5.90;;;4.20;;
1682;SDS011;13252;53.596;10.060;2023-02-28T04:12:14;8.53;;;4.80;;
1682;SDS011;13252;53.596;10.060;2023-02-28T04:14:42;9.07;;;4.40;;
1682;SDS011;13252;53.596;10.060;2023-02-28T04:17:10;10.07;;;4.90;;
1682;SDS011;13252;53.596;10.060;2023-02-28T04:19:39;9.17;;;4.47;;
1682;SDS011;13252;53.596;10.060;2023-02-28T04:22:07;7.83;;;4.33;;
1682;SDS011;13252;53.596;10.060;2023-02-28T04:24:36;11.73;;;4.67;;
1682;SDS011;13252;53.596;10.060;2023-02-28T04:27:08;8.17;;;5.13;;
1682;SDS011;13252;53.596;10.060;2023-02-28T04:29:36;10.30;;;5.10;;
1682;SDS011;13252;53.596;10.060;2023-02-28T04:32:04;12.20;;;4.40;;
1682;SDS011;13252;53.596;10.060;2023-02-28T04:34:32;10.93;;;5.37;;
1682;SDS011;13252;53.596;10.060;2023-02-28T04:37:00;8.83;;;4.80;;
1682;SDS011;13252;53.596;10.060;2023-02-28T04:39:40;7.60;;;4.67;;
1682;SDS011;13252;53.596;10.060;2023-02-28T04:42:09;7.50;;;4.90;;
1682;SDS011;13252;53.596;10.060;2023-02-28T04:44:36;9.33;;;6.10;;
1682;SDS011;13252;53.596;10.060;2023-02-28T04:47:04;12.73;;;4.50;;
1682;SDS011;13252;53.596;10.060;2023-02-28T04:49:32;13.90;;;4.80;;
1682;SDS011;13252;53.596;10.060;2023-02-28T04:52:00;8.90;;;5.70;;
1682;SDS011;13252;53.596;10.060;2023-02-28T04:54:28;11.87;;;5.73;;
1682;SDS011;13252;53.596;10.060;2023-02-28T04:56:57;9.47;;;4.47;;
1682;SDS011;13252;53.596;10.060;2023-02-28T04:59:25;17.37;;;6.17;;
1682;SDS011;13252;53.596;10.060;2023-02-28T05:01:53;8.30;;;5.50;;
1682;SDS011;13252;53.596;10.060;2023-02-28T05:04:20;11.37;;;5.37;;
1682;SDS011;13252;53.596;10.060;2023-02-28T05:06:48;12.30;;;5.37;;
1682;SDS011;13252;53.596;10.060;2023-02-28T05:09:16;7.63;;;5.40;;
1682;SDS011;13252;53.596;10.060;2023-02-28T05:11:44;10.43;;;4.93;;
1682;SDS011;13252;53.596;10.060;2023-02-28T05:14:13;11.77;;;6.90;;
1682;SDS011;13252;53.596;10.060;2023-02-28T05:16:41;9.63;;;6.00;;
1682;SDS011;13252;53.596;10.060;2023-02-28T05:19:09;10.63;;;6.10;;
1682;SDS011;13252;53.596;10.060;2023-02-28T05:21:37;12.10;;;7.33;;
1682;SDS011;13252;53.596;10.060;2023-02-28T05:24:07;9.80;;;5.87;;
1682;SDS011;13252;53.596;10.060;2023-02-28T05:26:37;8.80;;;5.50;;
1682;SDS011;13252;53.596;10.060;2023-02-28T05:29:07;15.00;;;6.10;;
1682;SDS011;13252;53.596;10.060;2023-02-28T05:31:37;10.80;;;6.03;;
1682;SDS011;13252;53.596;10.060;2023-02-28T05:34:04;11.00;;;6.60;;
1682;SDS011;13252;53.596;10.060;2023-02-28T05:36:32;11.80;;;5.43;;
1682;SDS011;13252;53.596;10.060;2023-02-28T05:39:00;14.63;;;6.80;;
1682;SDS011;13252;53.596;10.060;2023-02-28T05:41:28;12.27;;;6.67;;
1682;SDS011;13252;53.596;10.060;2023-02-28T05:43:56;10.47;;;6.13;;
1682;SDS011;13252;53.596;10.060;2023-02-28T05:46:24;13.63;;;5.97;;
1682;SDS011;13252;53.596;10.060;2023-02-28T05:48:53;9.63;;;5.83;;
1682;SDS011;13252;53.596;10.060;2023-02-28T05:51:22;8.67;;;6.30;;
1682;SDS011;13252;53.596;10.060;2023-02-28T05:53:49;12.80;;;6.63;;
1682;SDS011;13252;53.596;10.060;2023-02-28T05:56:17;9.10;;;5.93;;
1682;SDS011;13252;53.596;10.060;2023-02-28T05:58:45;16.93;;;7.10;;
1682;SDS011;13252;53.596;10.060;2023-02-28T06:01:19;14.03;;;7.30;;
1682;SDS011;13252;53.596;10.060;2023-02-28T06:03:53;8.47;;;5.60;;
1682;SDS011;13252;53.596;10.060;2023-02-28T06:06:21;13.27;;;6.77;;
1682;SDS011;13252;53.596;10.060;2023-02-28T06:08:48;10.67;;;6.90;;
1682;SDS011;13252;53.596;10.060;2023-02-28T06:11:16;16.70;;;7.13;;
1682;SDS011;13252;53.596;10.060;2023-02-28T06:13:46;13.00;;;7.27;;
1682;SDS011;13252;53.596;10.060;2023-02-28T06:16:14;10.07;;;7.00;;
1682;SDS011;13252;53.596;10.060;2023-02-28T06:18:43;9.47;;;6.93;;
1682;SDS011;13252;53.596;10.060;2023-02-28T06:21:13;11.67;;;6.70;;
1682;SDS011;13252;53.596;10.060;2023-02-28T06:23:41;13.23;;;8.70;;
1682;SDS011;13252;53.596;10.060;2023-02-28T06:26:08;11.90;;;7.47;;
1682;SDS011;13252;53.596;10.060;2023-02-28T06:28:36;19.90;;;8.50;;
1682;SDS011;13252;53.596;10.060;2023-02-28T06:31:07;11.10;;;7.03;;
1682;SDS011;13252;53.596;10.060;2023-02-28T06:33:36;17.20;;;8.50;;
1682;SDS011;13252;53.596;10.060;2023-02-28T06:36:05;10.97;;;7.80;;
1682;SDS011;13252;53.596;10.060;2023-02-28T06:38:35;13.47;;;7.77;;
1682;SDS011;13252;53.596;10.060;2023-02-28T06:41:04;13.13;;;7.63;;
1682;SDS011;13252;53.596;10.060;2023-02-28T06:43:33;11.23;;;7.73;;
1682;SDS011;13252;53.596;10.060;2023-02-28T06:46:03;13.80;;;8.20;;
1682;SDS011;13252;53.596;10.060;2023-02-28T06:48:32;19.40;;;8.70;;
1682;SDS011;13252;53.596;10.060;2023-02-28T06:51:02;23.30;;;13.13;;
1682;SDS011;13252;53.596;10.060;2023-02-28T06:53:30;15.33;;;8.73;;
1682;SDS011;13252;53.596;10.060;2023-02-28T06:55:59;13.60;;;8.03;;
1682;SDS011;13252;53.596;10.060;2023-02-28T06:58:32;19.77;;;8.97;;
1682;SDS011;13252;53.596;10.060;2023-02-28T07:01:00;15.00;;;8.03;;
1682;SDS011;13252;53.596;10.060;2023-02-28T07:03:28;14.77;;;8.13;;
1682;SDS011;13252;53.596;10.060;2023-02-28T07:05:59;16.97;;;8.00;;
1682;SDS011;13252;53.596;10.060;2023-02-28T07:08:27;11.77;;;7.73;;
1682;SDS011;13252;53.596;10.060;2023-02-28T07:10:55;11.47;;;7.37;;
1682;SDS011;13252;53.596;10.060;2023-02-28T07:13:25;11.80;;;7.53;;
1682;SDS011;13252;53.596;10.060;2023-02-28T07:15:54;19.43;;;8.50;;
1682;SDS011;13252;53.596;10.060;2023-02-28T07:18:22;9.40;;;7.13;;
1682;SDS011;13252;53.596;10.060;2023-02-28T07:20:51;17.17;;;8.50;;
1682;SDS011;13252;53.596;10.060;2023-02-28T07:23:19;10.60;;;7.67;;
1682;SDS011;13252;53.596;10.060;2023-02-28T07:25:47;9.20;;;7.67;;
1682;SDS011;13252;53.596;10.060;2023-02-28T07:28:16;11.83;;;6.67;;
1682;SDS011;13252;53.596;10.060;2023-02-28T07:30:45;17.07;;;9.77;;
1682;SDS011;13252;53.596;10.060;2023-02-28T07:33:14;15.30;;;6.57;;
1682;SDS011;13252;53.596;10.060;2023-02-28T07:35:42;21.50;;;8.20;;
1682;SDS011;13252;53.596;10.060;2023-02-28T07:38:09;8.57;;;6.23;;
1682;SDS011;13252;53.596;10.060;2023-02-28T07:40:39;12.83;;;7.03;;
1682;SDS011;13252;53.596;10.060;2023-02-28T07:43:06;11.67;;;7.87;;
1682;SDS011;13252;53.596;10.060;2023-02-28T07:45:34;11.83;;;7.90;;
1682;SDS011;13252;53.596;10.060;2023-02-28T07:48:03;11.87;;;7.37;;
1682;SDS011;13252;53.596;10.060;2023-02-28T07:50:31;12.60;;;7.53;;
1682;SDS011;13252;53.596;10.060;2023-02-28T07:53:00;13.90;;;7.03;;
1682;SDS011;13252;53.596;10.060;2023-02-28T07:55:28;11.70;;;6.40;;
1682;SDS011;13252;53.596;10.060;2023-02-28T07:57:56;12.83;;;6.47;;
1682;SDS011;13252;53.596;10.060;2023-02-28T08:00:24;11.33;;;6.37;;
1682;SDS011;13252;53.596;10.060;2023-02-28T08:02:55;13.60;;;6.80;;
1682;SDS011;13252;53.596;10.060;2023-02-28T08:05:24;8.23;;;6.30;;
1682;SDS011;13252;53.596;10.060;2023-02-28T08:07:52;11.23;;;6.80;;
1682;SDS011;13252;53.596;10.060;2023-02-28T08:10:20;15.20;;;6.90;;
1682;SDS011;13252;53.596;10.060;2023-02-28T08:12:48;11.70;;;7.30;;
1682;SDS011;13252;53.596;10.060;2023-02-28T08:15:16;15.47;;;7.23;;
1682;SDS011;13252;53.596;10.060;2023-02-28T08:17:44;13.90;;;7.57;;
1682;SDS011;13252;53.596;10.060;2023-02-28T08:20:12;24.00;;;7.70;;
1682;SDS011;13252;53.596;10.060;2023-02-28T08:22:42;16.13;;;7.80;;
1682;SDS011;13252;53.596;10.060;2023-02-28T08:25:11;16.97;;;8.63;;
1682;SDS011;13252;53.596;10.060;2023-02-28T08:27:39;8.50;;;6.27;;
1682;SDS011;13252;53.596;10.060;2023-02-28T08:30:07;13.13;;;7.40;;
1682;SDS011;13252;53.596;10.060;2023-02-28T08:32:37;12.23;;;7.60;;
1682;SDS011;13252;53.596;10.060;2023-02-28T08:35:06;9.40;;;6.80;;
1682;SDS011;13252;53.596;10.060;2023-02-28T08:37:35;12.33;;;7.50;;
1682;SDS011;13252;53.596;10.060;2023-02-28T08:40:05;18.03;;;7.63;;
1682;SDS011;13252;53.596;10.060;2023-02-28T08:42:34;13.30;;;7.23;;
1682;SDS011;13252;53.596;10.060;2023-02-28T08:45:02;12.90;;;6.97;;
1682;SDS011;13252;53.596;10.060;2023-02-28T08:47:30;10.30;;;6.17;;
1682;SDS011;13252;53.596;10.060;2023-02-28T08:49:58;12.40;;;6.93;;
1682;SDS011;13252;53.596;10.060;2023-02-28T08:52:26;12.77;;;8.23;;
1682;SDS011;13252;53.596;10.060;2023-02-28T08:54:54;18.07;;;7.37;;
1682;SDS011;13252;53.596;10.060;2023-02-28T08:57:23;11.57;;;6.50;;
1682;SDS011;13252;53.596;10.060;2023-02-28T08:59:52;15.53;;;7.67;;
1682;SDS011;13252;53.596;10.060;2023-02-28T09:02:20;12.60;;;6.60;;
1682;SDS011;13252;53.596;10.060;2023-02-28T09:04:48;12.00;;;7.03;;
1682;SDS011;13252;53.596;10.060;2023-02-28T09:07:16;15.27;;;6.30;;
1682;SDS011;13252;53.596;10.060;2023-02-28T09:09:44;13.13;;;7.10;;
1682;SDS011;13252;53.596;10.060;2023-02-28T09:12:21;12.13;;;6.17;;
1682;SDS011;13252;53.596;10.060;2023-02-28T09:14:51;9.27;;;5.17;;
1682;SDS011;13252;53.596;10.060;2023-02-28T09:17:19;16.07;;;5.97;;
1682;SDS011;13252;53.596;10.060;2023-02-28T09:19:47;7.30;;;4.30;;
1682;SDS011;13252;53.596;10.060;2023-02-28T09:22:15;10.67;;;5.80;;
1682;SDS011;13252;53.596;10.060;2023-02-28T09:24:43;12.40;;;4.77;;
1682;SDS011;13252;53.596;10.060;2023-02-28T09:27:11;11.00;;;4.40;;
1682;SDS011;13252;53.596;10.060;2023-02-28T09:29:39;8.47;;;4.37;;
1682;SDS011;13252;53.596;10.060;2023-02-28T09:32:08;4.17;;;2.60;;
1682;SDS011;13252;53.596;10.060;2023-02-28T09:34:36;3.90;;;2.43;;
1682;SDS011;13252;53.596;10.060;2023-02-28T09:37:04;6.60;;;3.20;;
1682;SDS011;13252;53.596;10.060;2023-02-28T09:39:32;9.87;;;3.20;;
1682;SDS011;13252;53.596;10.060;2023-02-28T09:42:00;7.77;;;3.10;;
1682;SDS011;13252;53.596;10.060;2023-02-28T09:44:30;9.03;;;2.93;;
1682;SDS011;13252;53.596;10.060;2023-02-28T09:47:00;6.67;;;3.57;;
1682;SDS011;13252;53.596;10.060;2023-02-28T09:49:34;6.60;;;3.40;;
1682;SDS011;13252;53.596;10.060;2023-02-28T09:52:07;5.60;;;3.70;;
1682;SDS011;13252;53.596;10.060;2023-02-28T09:54:37;8.30;;;3.50;;
1682;SDS011;13252;53.596;10.060;2023-02-28T09:57:07;15.60;;;4.03;;
1682;SDS011;13252;53.596;10.060;2023-02-28T09:59:48;9.17;;;4.10;;
1682;SDS011;13252;53.596;10.060;2023-02-28T10:02:39;5.60;;;3.30;;
1682;SDS011;13252;53.596;10.060;2023-02-28T10:05:14;6.50;;;3.23;;
1682;SDS011;13252;53.596;10.060;2023-02-28T10:07:50;4.20;;;2.70;;
1682;SDS011;13252;53.596;10.060;2023-02-28T10:10:26;5.43;;;3.00;;
1682;SDS011;13252;53.596;10.060;2023-02-28T10:12:57;7.07;;;3.70;;
1682;SDS011;13252;53.596;10.060;2023-02-28T10:15:28;13.43;;;3.40;;
1682;SDS011;13252;53.596;10.060;2023-02-28T10:17:58;5.37;;;3.00;;
1682;SDS011;13252;53.596;10.060;2023-02-28T10:20:37;5.53;;;2.90;;
1682;SDS011;13252;53.596;10.060;2023-02-28T10:23:09;6.70;;;3.00;;
1682;SDS011;13252;53.596;10.060;2023-02-28T10:25:40;4.60;;;2.87;;
1682;SDS011;13252;53.596;10.060;2023-02-28T10:28:15;9.40;;;3.20;;
1682;SDS011;13252;53.596;10.060;2023-02-28T10:30:45;8.60;;;3.60;;
1682;SDS011;13252;53.596;10.060;2023-02-28T10:33:16;6.03;;;3.37;;
1682;SDS011;13252;53.596;10.060;2023-02-28T10:35:48;5.27;;;2.53;;
1682;SDS011;13252;53.596;10.060;2023-02-28T10:38:18;5.50;;;2.50;;
1682;SDS011;13252;53.596;10.060;2023-02-28T10:40:47;8.30;;;3.70;;
1682;SDS011;13252;53.596;10.060;2023-02-28T10:43:19;5.90;;;2.63;;
1682;SDS011;13252;53.596;10.060;2023-02-28T10:45:52;8.43;;;3.50;;
1682;SDS011;13252;53.596;10.060;2023-02-28T10:48:26;6.33;;;2.90;;
1682;SDS011;13252;53.596;10.060;2023-02-28T10:50:58;8.00;;;2.70;;
1682;SDS011;13252;53.596;10.060;2023-02-28T10:53:31;4.87;;;2.63;;
1682;SDS011;13252;53.596;10.060;2023-02-28T10:56:15;5.03;;;2.87;;
1682;SDS011;13252;53.596;10.060;2023-02-28T10:58:54;8.37;;;3.90;;
1682;SDS011;13252;53.596;10.060;2023-02-28T11:01:26;3.90;;;2.27;;
1682;SDS011;13252;53.596;10.060;2023-02-28T11:04:02;5.93;;;2.63;;
1682;SDS011;13252;53.596;10.060;2023-02-28T11:06:33;7.07;;;2.63;;
1682;SDS011;13252;53.596;10.060;2023-02-28T11:09:03;5.27;;;2.40;;
1682;SDS011;13252;53.596;10.060;2023-02-28T11:11:40;4.70;;;2.70;;
1682;SDS011;13252;53.596;10.060;2023-02-28T11:14:14;8.60;;;2.67;;
1682;SDS011;13252;53.596;10.060;2023-02-28T11:16:46;4.50;;;3.20;;
1682;SDS011;13252;53.596;10.060;2023-02-28T11:19:20;5.50;;;2.97;;
1682;SDS011;13252;53.596;10.060;2023-02-28T11:21:55;7.17;;;3.10;;
1682;SDS011;13252;53.596;10.060;2023-02-28T11:24:26;4.97;;;2.47;;
1682;SDS011;13252;53.596;10.060;2023-02-28T11:26:55;10.83;;;2.57;;
1682;SDS011;13252;53.596;10.060;2023-02-28T11:29:24;9.23;;;3.33;;
1682;SDS011;13252;53.596;10.060;2023-02-28T11:32:00;6.17;;;3.13;;
1682;SDS011;13252;53.596;10.060;2023-02-28T11:34:31;6.03;;;2.13;;
1682;SDS011;13252;53.596;10.060;2023-02-28T11:37:01;5.13;;;2.77;;
1682;SDS011;13252;53.596;10.060;2023-02-28T11:39:34;5.77;;;2.77;;
1682;SDS011;13252;53.596;10.060;2023-02-28T11:42:11;3.90;;;2.30;;
1682;SDS011;13252;53.596;10.060;2023-02-28T11:47:55;6.40;;;2.93;;
1682;SDS011;13252;53.596;10.060;2023-02-28T11:59:35;5.90;;;3.40;;
1682;SDS011;13252;53.596;10.060;2023-02-28T12:02:23;9.50;;;2.70;;
1682;SDS011;13252;53.596;10.060;2023-02-28T12:05:01;4.80;;;2.50;;
1682;SDS011;13252;53.596;10.060;2023-02-28T12:07:45;5.90;;;2.80;;
1682;SDS011;13252;53.596;10.060;2023-02-28T12:10:21;4.73;;;2.97;;
1682;SDS011;13252;53.596;10.060;2023-02-28T12:12:55;9.80;;;2.70;;
1682;SDS011;13252;53.596;10.060;2023-02-28T12:18:38;9.53;;;2.80;;
1682;SDS011;13252;53.596;10.060;2023-02-28T13:29:29;7.90;;;2.90;;
1682;SDS011;13252;53.596;10.060;2023-02-28T13:38:32;4.90;;;3.10;;
1682;SDS011;13252;53.596;10.060;2023-02-28T14:07:56;4.37;;;2.30;;
1682;SDS011;13252;53.596;10.060;2023-02-28T14:10:39;6.50;;;3.20;;
1682;SDS011;13252;53.596;10.060;2023-02-28T14:16:36;9.10;;;3.13;;
1682;SDS011;13252;53.596;10.060;2023-02-28T14:19:22;10.60;;;3.30;;
1682;SDS011;13252;53.596;10.060;2023-02-28T14:25:36;5.87;;;2.63;;
1682;SDS011;13252;53.596;10.060;2023-02-28T14:28:34;5.37;;;2.70;;
1682;SDS011;13252;53.596;10.060;2023-02-28T14:31:28;8.90;;;3.00;;
1682;SDS011;13252;53.596;10.060;2023-02-28T14:34:22;4.30;;;2.07;;
1682;SDS011;13252;53.596;10.060;2023-02-28T14:37:33;3.90;;;2.20;;
1682;SDS011;13252;53.596;10.060;2023-02-28T14:43:47;4.40;;;2.27;;
1682;SDS011;13252;53.596;10.060;2023-02-28T14:46:28;5.17;;;2.20;;
1682;SDS011;13252;53.596;10.060;2023-02-28T14:49:15;6.00;;;2.13;;
1682;SDS011;13252;53.596;10.060;2023-02-28T14:51:49;4.77;;;2.00;;
1682;SDS011;13252;53.596;10.060;2023-02-28T14:54:35;5.63;;;2.07;;
1682;SDS011;13252;53.596;10.060;2023-02-28T14:57:24;5.30;;;1.87;;
1682;SDS011;13252;53.596;10.060;2023-02-28T15:00:21;6.47;;;2.67;;
1682;SDS011;13252;53.596;10.060;2023-02-28T15:03:01;4.30;;;2.07;;
1682;SDS011;13252;53.596;10.060;2023-02-28T15:05:56;5.40;;;2.80;;
1682;SDS011;13252;53.596;10.060;2023-02-28T15:08:31;5.57;;;2.30;;
1682;SDS011;13252;53.596;10.060;2023-02-28T15:11:07;7.63;;;1.80;;
1682;SDS011;13252;53.596;10.060;2023-02-28T15:13:56;4.30;;;1.83;;
1682;SDS011;13252;53.596;10.060;2023-02-28T15:17:46;3.57;;;1.93;;
1682;SDS011;13252;53.596;10.060;2023-02-28T15:21:17;4.30;;;2.17;;
1682;SDS011;13252;53.596;10.060;2023-02-28T15:32:24;4.27;;;2.33;;
1682;SDS011;13252;53.596;10.060;2023-02-28T15:34:59;3.93;;;2.20;;
1682;SDS011;13252;53.596;10.060;2023-02-28T15:37:58;4.93;;;2.30;;
1682;SDS011;13252;53.596;10.060;2023-02-28T15:40:52;5.07;;;2.30;;
1682;SDS011;13252;53.596;10.060;2023-02-28T15:43:25;4.53;;;2.37;;
1682;SDS011;13252;53.596;10.060;2023-02-28T15:50:12;4.07;;;2.50;;
1682;SDS011;13252;53.596;10.060;2023-02-28T15:52:52;5.57;;;2.47;;
1682;SDS011;13252;53.596;10.060;2023-02-28T15:55:21;6.77;;;2.83;;
1682;SDS011;13252;53.596;10.060;2023-02-28T15:57:51;5.53;;;2.40;;
1682;SDS011;13252;53.596;10.060;2023-02-28T16:00:21;5.90;;;2.53;;
1682;SDS011;13252;53.596;10.060;2023-02-28T16:02:51;5.17;;;2.07;;
1682;SDS011;13252;53.596;10.060;2023-02-28T16:05:21;4.83;;;2.47;;
1682;SDS011;13252;53.596;10.060;2023-02-28T16:07:54;5.43;;;2.70;;
1682;SDS011;13252;53.596;10.060;2023-02-28T16:10:24;4.83;;;2.40;;
1682;SDS011;13252;53.596;10.060;2023-02-28T16:12:54;7.30;;;3.00;;
1682;SDS011;13252;53.596;10.060;2023-02-28T16:15:23;7.53;;;2.67;;
1682;SDS011;13252;53.596;10.060;2023-02-28T16:17:54;6.83;;;2.47;;
1682;SDS011;13252;53.596;10.060;2023-02-28T16:20:23;5.73;;;2.23;;
1682;SDS011;13252;53.596;10.060;2023-02-28T16:22:53;3.83;;;2.20;;
1682;SDS011;13252;53.596;10.060;2023-02-28T16:25:23;3.83;;;2.13;;
1682;SDS011;13252;53.596;10.060;2023-02-28T16:27:51;5.80;;;2.40;;
1682;SDS011;13252;53.596;10.060;2023-02-28T16:30:21;5.50;;;2.30;;
1682;SDS011;13252;53.596;10.060;2023-02-28T16:32:51;13.13;;;2.73;;
1682;SDS011;13252;53.596;10.060;2023-02-28T16:35:22;7.73;;;2.50;;
1682;SDS011;13252;53.596;10.060;2023-02-28T16:37:51;6.73;;;2.60;;
1682;SDS011;13252;53.596;10.060;2023-02-28T16:40:20;11.80;;;2.67;;
1682;SDS011;13252;53.596;10.060;2023-02-28T16:42:49;8.87;;;2.60;;
1682;SDS011;13252;53.596;10.060;2023-02-28T16:45:20;6.13;;;2.40;;
1682;SDS011;13252;53.596;10.060;2023-02-28T16:47:49;4.70;;;2.40;;
1682;SDS011;13252;53.596;10.060;2023-02-28T16:50:19;5.63;;;2.30;;
1682;SDS011;13252;53.596;10.060;2023-02-28T16:52:48;4.67;;;2.77;;
1682;SDS011;13252;53.596;10.060;2023-02-28T16:55:18;4.80;;;2.80;;
1682;SDS011;13252;53.596;10.060;2023-02-28T16:57:49;9.93;;;2.60;;
1682;SDS011;13252;53.596;10.060;2023-02-28T17:00:20;4.53;;;2.30;;
1682;SDS011;13252;53.596;10.060;2023-02-28T17:03:03;7.57;;;2.93;;
1682;SDS011;13252;53.596;10.060;2023-02-28T17:05:34;6.37;;;2.70;;
1682;SDS011;13252;53.596;10.060;2023-02-28T17:08:04;27.73;;;3.00;;
1682;SDS011;13252;53.596;10.060;2023-02-28T17:10:32;6.70;;;2.80;;
1682;SDS011;13252;53.596;10.060;2023-02-28T17:13:00;5.50;;;2.50;;
1682;SDS011;13252;53.596;10.060;2023-02-28T17:15:39;8.80;;;3.53;;
1682;SDS011;13252;53.596;10.060;2023-02-28T17:18:08;6.83;;;2.93;;
1682;SDS011;13252;53.596;10.060;2023-02-28T17:20:39;8.50;;;3.23;;
1682;SDS011;13252;53.596;10.060;2023-02-28T17:23:08;5.97;;;2.10;;
1682;SDS011;13252;53.596;10.060;2023-02-28T17:25:36;5.93;;;3.20;;
1682;SDS011;13252;53.596;10.060;2023-02-28T17:28:04;6.10;;;3.37;;
1682;SDS011;13252;53.596;10.060;2023-02-28T17:30:33;8.53;;;3.57;;
1682;SDS011;13252;53.596;10.060;2023-02-28T17:33:01;6.90;;;2.93;;
1682;SDS011;13252;53.596;10.060;2023-02-28T17:35:29;7.43;;;3.70;;
1682;SDS011;13252;53.596;10.060;2023-02-28T17:37:58;9.90;;;3.77;;
1682;SDS011;13252;53.596;10.060;2023-02-28T17:40:26;7.27;;;4.10;;
1682;SDS011;13252;53.596;10.060;2023-02-28T17:42:54;12.43;;;4.20;;